createdAt,value
2023-05-09T00:00:57.319Z,16.60
2023-05-09T00:03:31.029Z,16.60
2023-05-09T00:06:02.607Z,16.60
2023-05-09T00:08:33.510Z,16.50
2023-05-09T00:11:04.810Z,16.50
2023-05-09T00:13:35.959Z,16.50
2023-05-09T00:16:07.301Z,16.50
2023-05-09T00:18:43.884Z,16.40
2023-05-09T00:21:14.768Z,16.30
2023-05-09T00:23:48.536Z,16.20
2023-05-09T00:26:19.792Z,16.20
2023-05-09T00:28:50.708Z,16.20
2023-05-09T00:31:21.665Z,16.10
2023-05-09T00:33:57.144Z,16.00
2023-05-09T00:36:28.273Z,15.90
2023-05-09T00:38:59.251Z,15.90
2023-05-09T00:41:30.201Z,16.00
2023-05-09T00:44:01.122Z,15.80
2023-05-09T00:46:33.362Z,15.80
2023-05-09T00:49:08.264Z,15.70
2023-05-09T00:51:40.085Z,15.60
2023-05-09T00:54:12.165Z,15.60
2023-05-09T00:56:43.232Z,15.60
2023-05-09T00:59:16.274Z,16.10
2023-05-09T01:01:48.628Z,15.60
2023-05-09T01:04:22.533Z,15.60
2023-05-09T01:07:01.036Z,15.60
2023-05-09T01:09:39.804Z,16.00
2023-05-09T01:12:19.347Z,15.60
2023-05-09T01:15:00.047Z,15.60
2023-05-09T01:17:39.524Z,15.60
2023-05-09T01:20:21.983Z,15.50
2023-05-09T01:23:03.606Z,15.50
2023-05-09T01:25:47.523Z,15.40
2023-05-09T01:28:32.451Z,15.30
2023-05-09T01:31:07.455Z,15.30
2023-05-09T01:33:41.759Z,15.30
2023-05-09T01:36:18.677Z,15.20
2023-05-09T01:38:53.001Z,15.20
2023-05-09T01:41:25.931Z,15.20
2023-05-09T01:44:00.242Z,15.20
2023-05-09T01:46:33.802Z,15.20
2023-05-09T01:49:06.371Z,15.20
2023-05-09T01:51:40.728Z,15.20
2023-05-09T01:54:13.193Z,15.40
2023-05-09T01:56:46.016Z,15.20
2023-05-09T01:59:18.897Z,15.10
2023-05-09T02:01:55.179Z,15.10
2023-05-09T02:04:27.530Z,15.10
2023-05-09T02:07:00.195Z,15.00
2023-05-09T02:09:31.177Z,15.00
2023-05-09T02:12:02.268Z,15.00
2023-05-09T02:14:33.256Z,15.00
2023-05-09T02:17:09.623Z,15.00
2023-05-09T02:19:40.558Z,15.10
2023-05-09T02:22:11.956Z,15.30
2023-05-09T02:24:43.785Z,15.00
2023-05-09T02:27:15.589Z,15.00
2023-05-09T02:29:50.396Z,15.00
2023-05-09T02:32:28.353Z,15.00
2023-05-09T02:35:00.635Z,15.00
2023-05-09T02:37:32.388Z,15.00
2023-05-09T02:40:05.562Z,15.00
2023-05-09T02:42:36.737Z,14.90
2023-05-09T02:45:09.941Z,14.90
2023-05-09T02:47:43.462Z,14.90
2023-05-09T02:50:15.228Z,15.20
2023-05-09T02:52:46.404Z,15.10
2023-05-09T02:55:17.499Z,14.80
2023-05-09T02:57:51.920Z,14.80
2023-05-09T03:00:28.110Z,14.80
2023-05-09T03:03:02.829Z,14.90
2023-05-09T03:05:33.908Z,14.90
2023-05-09T03:08:05.243Z,15.00
2023-05-09T03:10:36.064Z,14.90
2023-05-09T03:13:07.049Z,14.90
2023-05-09T03:15:38.232Z,15.00
2023-05-09T03:18:12.008Z,15.50
2023-05-09T03:20:42.954Z,15.00
2023-05-09T03:23:13.863Z,15.10
2023-05-09T03:25:45.516Z,15.00
2023-05-09T03:28:16.506Z,15.00
2023-05-09T03:30:47.376Z,15.30
2023-05-09T03:33:21.070Z,15.10
2023-05-09T03:35:52.277Z,15.10
2023-05-09T03:38:24.447Z,15.00
2023-05-09T03:40:56.696Z,15.10
2023-05-09T03:43:27.620Z,15.00
2023-05-09T03:45:58.625Z,15.00
2023-05-09T03:48:32.187Z,15.10
2023-05-09T03:51:03.158Z,15.00
2023-05-09T03:53:34.190Z,15.10
2023-05-09T03:56:05.165Z,15.10
2023-05-09T03:58:36.188Z,15.20
2023-05-09T04:01:07.219Z,15.20
2023-05-09T04:03:41.413Z,15.20
2023-05-09T04:06:12.783Z,15.30
2023-05-09T04:08:44.622Z,15.30
2023-05-09T04:11:15.629Z,15.30
2023-05-09T04:13:46.548Z,15.30
2023-05-09T04:16:17.503Z,15.40
2023-05-09T04:18:51.657Z,15.40
2023-05-09T04:21:22.497Z,15.50
2023-05-09T04:23:53.577Z,15.50
2023-05-09T04:26:24.826Z,15.60
2023-05-09T04:28:55.793Z,15.80
2023-05-09T04:31:26.991Z,15.70
2023-05-09T04:34:00.659Z,15.70
2023-05-09T04:36:31.970Z,15.80
2023-05-09T04:39:05.286Z,15.80
2023-05-09T04:41:36.269Z,15.80
2023-05-09T04:44:08.121Z,16.20
2023-05-09T04:46:39.098Z,15.90
2023-05-09T04:49:12.590Z,15.90
2023-05-09T04:51:43.463Z,16.10
2023-05-09T04:54:14.470Z,16.00
2023-05-09T04:56:45.356Z,16.20
2023-05-09T04:59:16.536Z,16.10
2023-05-09T05:01:47.670Z,16.20
2023-05-09T05:04:21.285Z,16.10
2023-05-09T05:06:52.236Z,16.10
2023-05-09T05:09:23.416Z,16.10
2023-05-09T05:12:01.875Z,16.20
2023-05-09T05:14:34.042Z,16.20
2023-05-09T05:17:04.983Z,16.30
2023-05-09T05:19:38.560Z,16.30
2023-05-09T05:22:09.630Z,16.30
2023-05-09T05:24:40.589Z,16.40
2023-05-09T05:27:14.435Z,16.40
2023-05-09T05:29:45.372Z,16.40
2023-05-09T05:32:18.407Z,16.40
2023-05-09T05:34:52.055Z,16.40
2023-05-09T05:37:22.996Z,16.40
2023-05-09T05:39:54.535Z,16.40
2023-05-09T05:42:25.624Z,16.50
2023-05-09T05:44:56.700Z,16.50
2023-05-09T05:47:29.310Z,16.50
2023-05-09T05:50:03.481Z,16.80
2023-05-09T05:52:34.575Z,16.60
2023-05-09T05:55:05.647Z,16.50
2023-05-09T05:57:37.853Z,16.40
2023-05-09T06:00:11.745Z,16.50
2023-05-09T06:02:44.909Z,16.50
2023-05-09T06:05:18.609Z,16.60
2023-05-09T06:07:49.560Z,16.60
2023-05-09T06:10:20.584Z,16.70
2023-05-09T06:12:53.929Z,16.70
2023-05-09T06:15:24.949Z,16.80
2023-05-09T06:17:59.268Z,16.80
2023-05-09T06:20:33.261Z,16.70
2023-05-09T06:23:04.188Z,16.90
2023-05-09T06:25:35.296Z,17.00
2023-05-09T06:28:06.518Z,17.10
2023-05-09T06:30:37.519Z,17.20
2023-05-09T06:33:08.956Z,17.20
2023-05-09T06:35:42.718Z,17.20
2023-05-09T06:38:13.702Z,17.40
2023-05-09T06:40:44.726Z,17.50
2023-05-09T06:43:15.679Z,17.70
2023-05-09T06:45:46.680Z,17.70
2023-05-09T06:48:17.554Z,17.90
2023-05-09T06:50:51.582Z,18.00
2023-05-09T06:53:22.698Z,18.10
2023-05-09T06:55:53.721Z,18.10
2023-05-09T06:58:24.723Z,18.00
2023-05-09T07:00:56.169Z,18.60
2023-05-09T07:03:27.053Z,18.20
2023-05-09T07:06:00.535Z,18.30
2023-05-09T07:08:32.599Z,18.40
2023-05-09T07:11:03.587Z,18.40
2023-05-09T07:13:34.504Z,18.50
2023-05-09T07:16:05.564Z,18.60
2023-05-09T07:18:36.454Z,18.90
2023-05-09T07:21:10.252Z,18.90
2023-05-09T07:23:41.128Z,18.90
2023-05-09T07:26:14.879Z,18.80
2023-05-09T07:28:45.990Z,18.90
2023-05-09T07:31:16.878Z,18.80
2023-05-09T07:33:47.971Z,18.80
2023-05-09T07:36:21.781Z,19.00
2023-05-09T07:38:53.688Z,19.20
2023-05-09T07:41:25.122Z,19.10
2023-05-09T07:43:56.176Z,19.20
2023-05-09T07:46:27.641Z,19.30
2023-05-09T07:49:01.669Z,19.30
2023-05-09T07:51:35.196Z,19.10
2023-05-09T07:54:10.215Z,19.20
2023-05-09T07:56:41.381Z,19.10
2023-05-09T07:59:12.410Z,19.10
2023-05-09T08:01:43.360Z,19.30
2023-05-09T08:04:14.313Z,19.30
2023-05-09T08:06:50.201Z,19.30
2023-05-09T08:09:23.956Z,19.20
2023-05-09T08:11:57.006Z,19.20
2023-05-09T08:14:27.986Z,19.40
2023-05-09T08:16:58.991Z,19.50
2023-05-09T08:19:29.916Z,19.50
2023-05-09T08:22:03.552Z,19.70
2023-05-09T08:24:35.747Z,19.90
2023-05-09T08:27:07.234Z,19.90
2023-05-09T08:29:38.703Z,20.10
2023-05-09T08:32:09.900Z,20.30
2023-05-09T08:34:40.957Z,20.20
2023-05-09T08:37:15.409Z,20.30
2023-05-09T08:39:46.705Z,20.20
2023-05-09T08:42:24.802Z,20.10
2023-05-09T08:44:57.197Z,20.00
2023-05-09T08:47:29.587Z,20.00
2023-05-09T08:50:00.654Z,19.80
2023-05-09T08:52:35.759Z,20.30
2023-05-09T08:55:07.614Z,20.00
2023-05-09T08:57:38.706Z,20.10
2023-05-09T09:00:12.257Z,20.10
2023-05-09T09:02:44.302Z,20.10
2023-05-09T09:05:34.261Z,20.20
2023-05-09T09:08:11.125Z,20.40
2023-05-09T09:10:47.382Z,20.50
2023-05-09T09:13:20.032Z,20.50
2023-05-09T09:15:54.636Z,20.50
2023-05-09T09:18:31.165Z,20.60
2023-05-09T09:21:08.425Z,20.70
2023-05-09T09:23:48.444Z,20.60
2023-05-09T09:26:22.402Z,20.60
2023-05-09T09:28:58.102Z,20.70
2023-05-09T09:31:35.822Z,20.90
2023-05-09T09:34:06.922Z,21.00
2023-05-09T09:36:38.040Z,21.00
2023-05-09T09:39:16.712Z,20.90
2023-05-09T09:41:47.758Z,21.10
2023-05-09T09:44:20.229Z,21.20
2023-05-09T09:46:53.040Z,21.40
2023-05-09T09:49:25.141Z,21.70
2023-05-09T09:51:57.706Z,21.50
2023-05-09T09:54:32.162Z,21.50
2023-05-09T09:57:03.301Z,21.40
2023-05-09T09:59:34.309Z,21.40
2023-05-09T10:02:09.944Z,21.50
2023-05-09T10:04:48.683Z,21.60
2023-05-09T10:07:28.300Z,21.60
2023-05-09T10:10:18.636Z,21.40
2023-05-09T10:13:02.178Z,21.20
2023-05-09T10:15:49.297Z,21.10
2023-05-09T10:18:51.534Z,21.30
2023-05-09T10:21:47.975Z,21.40
2023-05-09T10:24:21.019Z,21.60
2023-05-09T10:27:09.116Z,21.40
2023-05-09T10:29:47.502Z,21.60
2023-05-09T10:32:35.785Z,21.80
2023-05-09T10:35:09.764Z,21.80
2023-05-09T10:37:43.286Z,21.80
2023-05-09T10:40:15.776Z,21.90
2023-05-09T10:42:52.193Z,22.00
2023-05-09T10:45:24.789Z,21.90
2023-05-09T10:47:57.715Z,22.00
2023-05-09T10:50:29.413Z,22.20
2023-05-09T10:53:14.350Z,21.90
2023-05-09T10:55:53.822Z,22.00
2023-05-09T10:58:30.134Z,22.00
2023-05-09T11:01:04.615Z,21.90
2023-05-09T11:03:57.186Z,21.90
2023-05-09T11:06:49.579Z,21.90
2023-05-09T11:09:33.559Z,22.10
2023-05-09T11:12:12.221Z,22.00
2023-05-09T11:14:51.815Z,21.80
2023-05-09T11:17:32.926Z,21.90
2023-05-09T11:20:06.938Z,22.00
2023-05-09T11:22:43.064Z,22.00
2023-05-09T11:25:17.097Z,22.00
2023-05-09T11:27:53.455Z,22.10
2023-05-09T11:30:39.011Z,22.00
2023-05-09T11:33:23.953Z,22.10
2023-05-09T11:36:20.521Z,22.10
2023-05-09T11:38:52.007Z,22.20
2023-05-09T11:41:23.060Z,22.40
2023-05-09T11:43:56.012Z,22.50
2023-05-09T11:46:29.981Z,22.60
2023-05-09T11:49:02.172Z,22.50
2023-05-09T11:51:33.100Z,22.40
2023-05-09T11:54:07.693Z,22.30
2023-05-09T11:56:40.882Z,22.20
2023-05-09T11:59:14.731Z,22.30
2023-05-09T12:01:48.589Z,22.10
2023-05-09T12:04:19.609Z,21.90
2023-05-09T12:06:51.246Z,21.90
2023-05-09T12:09:22.485Z,21.80
2023-05-09T12:11:53.456Z,21.70
2023-05-09T12:14:31.588Z,21.80
2023-05-09T12:17:07.874Z,21.60
2023-05-09T12:19:39.561Z,21.50
2023-05-09T12:22:10.778Z,21.50
2023-05-09T12:24:41.800Z,21.60
2023-05-09T12:27:13.118Z,21.60
2023-05-09T12:29:46.222Z,21.80
2023-05-09T12:32:20.844Z,21.70
2023-05-09T12:34:52.245Z,21.90
2023-05-09T12:37:23.590Z,21.80
2023-05-09T12:40:04.914Z,21.80
2023-05-09T12:42:36.782Z,21.70
2023-05-09T12:45:11.452Z,21.60
2023-05-09T12:47:45.704Z,21.50
2023-05-09T12:50:16.777Z,21.60
2023-05-09T12:53:02.930Z,21.70
2023-05-09T12:55:41.481Z,21.80
2023-05-09T12:58:12.540Z,21.80
2023-05-09T13:00:47.014Z,21.90
2023-05-09T13:03:30.780Z,22.00
2023-05-09T13:06:04.010Z,22.30
2023-05-09T13:08:34.981Z,22.20
2023-05-09T13:11:15.664Z,22.20
2023-05-09T13:13:47.297Z,22.10
2023-05-09T13:16:18.427Z,22.10
2023-05-09T13:18:52.116Z,22.10
2023-05-09T13:21:23.071Z,22.10
2023-05-09T13:23:54.533Z,22.10
2023-05-09T13:26:27.120Z,22.10
2023-05-09T13:29:01.264Z,22.30
2023-05-09T13:31:32.242Z,22.10
2023-05-09T13:34:05.907Z,22.10
2023-05-09T13:36:36.774Z,22.30
2023-05-09T13:39:14.830Z,22.00
2023-05-09T13:41:45.706Z,22.00
2023-05-09T13:44:16.684Z,22.00
2023-05-09T13:46:48.826Z,22.00
2023-05-09T13:49:22.398Z,22.00
2023-05-09T13:51:57.695Z,22.00
2023-05-09T13:54:30.276Z,22.00
2023-05-09T13:57:01.533Z,21.90
2023-05-09T13:59:32.677Z,21.90
2023-05-09T14:02:04.191Z,22.20
2023-05-09T14:04:43.077Z,21.80
2023-05-09T14:07:15.087Z,21.50
2023-05-09T14:09:49.110Z,21.30
2023-05-09T14:12:23.323Z,21.40
2023-05-09T14:14:54.439Z,20.70
2023-05-09T14:17:25.629Z,20.50
2023-05-09T14:19:59.210Z,20.30
2023-05-09T14:22:30.338Z,20.30
2023-05-09T14:25:01.991Z,20.20
2023-05-09T14:27:37.407Z,20.00
2023-05-09T14:30:10.890Z,19.90
2023-05-09T14:32:41.851Z,19.80
2023-05-09T14:35:15.731Z,19.90
2023-05-09T14:37:46.657Z,19.90
2023-05-09T14:40:17.900Z,19.80
2023-05-09T14:42:50.896Z,19.70
2023-05-09T14:45:28.122Z,19.60
2023-05-09T14:47:59.078Z,19.40
2023-05-09T14:50:33.528Z,19.20
2023-05-09T14:53:12.925Z,18.90
2023-05-09T14:55:44.007Z,18.60
2023-05-09T14:58:16.301Z,18.60
2023-05-09T15:00:47.562Z,18.50
2023-05-09T15:03:21.976Z,18.30
2023-05-09T15:05:55.584Z,18.20
2023-05-09T15:08:26.843Z,18.10
2023-05-09T15:10:58.045Z,18.30
2023-05-09T15:13:29.003Z,18.50
2023-05-09T15:16:00.057Z,18.70
2023-05-09T15:18:31.008Z,18.70
2023-05-09T15:21:04.704Z,18.70
2023-05-09T15:23:39.510Z,18.80
2023-05-09T15:26:12.473Z,18.80
2023-05-09T15:28:44.405Z,18.90
2023-05-09T15:31:15.384Z,19.00
2023-05-09T15:33:47.841Z,19.10
2023-05-09T15:36:21.514Z,19.10
2023-05-09T15:38:52.929Z,19.00
2023-05-09T15:41:24.039Z,18.90
2023-05-09T15:43:55.551Z,18.90
2023-05-09T15:46:26.800Z,18.60
2023-05-09T15:49:00.420Z,18.70
2023-05-09T15:51:34.194Z,18.50
2023-05-09T15:54:05.167Z,18.50
2023-05-09T15:56:36.116Z,18.40
2023-05-09T15:59:07.461Z,18.10
2023-05-09T16:01:38.483Z,17.70
2023-05-09T16:04:09.610Z,17.50
2023-05-09T16:06:43.324Z,17.50
2023-05-09T16:09:15.559Z,17.50
2023-05-09T16:11:46.750Z,17.50
2023-05-09T16:14:17.700Z,17.40
2023-05-09T16:16:50.739Z,17.40
2023-05-09T16:19:21.840Z,17.30
2023-05-09T16:21:55.431Z,17.20
2023-05-09T16:24:26.329Z,17.20
2023-05-09T16:26:57.219Z,17.30
2023-05-09T16:29:28.864Z,17.50
2023-05-09T16:31:59.731Z,17.40
2023-05-09T16:34:30.916Z,17.40
2023-05-09T16:37:04.624Z,17.40
2023-05-09T16:39:35.554Z,17.50
2023-05-09T16:42:06.702Z,17.10
2023-05-09T16:44:37.708Z,17.00
2023-05-09T16:47:08.704Z,17.10
2023-05-09T16:49:39.691Z,17.00
2023-05-09T16:52:13.463Z,17.10
2023-05-09T16:54:44.461Z,17.50
2023-05-09T16:57:16.843Z,17.20
2023-05-09T16:59:48.045Z,17.20
2023-05-09T17:02:21.738Z,17.20
2023-05-09T17:04:52.764Z,17.20
2023-05-09T17:07:26.340Z,17.20
2023-05-09T17:09:57.236Z,17.10
2023-05-09T17:12:28.420Z,17.20
2023-05-09T17:14:59.289Z,17.20
2023-05-09T17:17:32.595Z,17.60
2023-05-09T17:20:04.633Z,17.20
2023-05-09T17:22:38.164Z,17.40
2023-05-09T17:25:10.267Z,17.20
2023-05-09T17:27:42.823Z,17.30
2023-05-09T17:30:14.803Z,17.30
2023-05-09T17:32:45.925Z,17.30
2023-05-09T17:35:19.468Z,17.30
2023-05-09T17:37:52.962Z,17.30
2023-05-09T17:40:24.185Z,17.30
2023-05-09T17:42:55.235Z,17.30
2023-05-09T17:45:26.991Z,17.40
2023-05-09T17:47:58.681Z,17.30
2023-05-09T17:50:29.844Z,17.20
2023-05-09T17:53:03.387Z,17.20
2023-05-09T17:55:34.439Z,17.20
2023-05-09T17:58:05.319Z,17.10
2023-05-09T18:00:36.928Z,17.10
2023-05-09T18:03:07.964Z,17.10
2023-05-09T18:05:38.891Z,17.10
2023-05-09T18:08:12.388Z,17.10
2023-05-09T18:10:44.170Z,17.00
2023-05-09T18:13:15.169Z,17.00
2023-05-09T18:15:46.190Z,17.20
2023-05-09T18:18:17.607Z,17.00
2023-05-09T18:20:49.157Z,17.10
2023-05-09T18:23:25.002Z,17.10
2023-05-09T18:25:56.854Z,16.90
2023-05-09T18:28:29.042Z,17.40
2023-05-09T18:31:01.508Z,16.70
2023-05-09T18:33:39.273Z,16.80
2023-05-09T18:36:15.247Z,16.60
2023-05-09T18:38:48.849Z,16.50
2023-05-09T18:41:20.130Z,16.60
2023-05-09T18:43:51.156Z,16.40
2023-05-09T18:46:22.734Z,16.40
2023-05-09T18:48:54.540Z,16.30
2023-05-09T18:51:25.727Z,16.30
2023-05-09T18:53:59.237Z,16.30
2023-05-09T18:56:30.136Z,16.40
2023-05-09T18:59:01.010Z,16.50
2023-05-09T19:01:32.185Z,16.50
2023-05-09T19:04:04.547Z,16.40
2023-05-09T19:06:35.636Z,16.70
2023-05-09T19:09:09.108Z,16.60
2023-05-09T19:11:40.043Z,16.20
2023-05-09T19:14:10.965Z,16.20
2023-05-09T19:16:42.020Z,16.10
2023-05-09T19:19:13.437Z,16.00
2023-05-09T19:21:44.471Z,16.40
2023-05-09T19:24:18.132Z,16.10
2023-05-09T19:26:49.096Z,16.20
2023-05-09T19:29:19.977Z,16.50
2023-05-09T19:31:53.355Z,16.30
2023-05-09T19:34:24.439Z,16.30
2023-05-09T19:36:55.494Z,16.30
2023-05-09T19:39:29.779Z,16.20
2023-05-09T19:42:00.902Z,16.20
2023-05-09T19:44:31.806Z,16.10
2023-05-09T19:47:05.390Z,16.10
2023-05-09T19:49:36.338Z,16.10
2023-05-09T19:52:07.809Z,16.10
2023-05-09T19:54:41.388Z,16.10
2023-05-09T19:57:13.937Z,16.10
2023-05-09T19:59:44.995Z,16.10
2023-05-09T20:02:16.049Z,16.10
2023-05-09T20:04:50.051Z,16.20
2023-05-09T20:07:21.278Z,16.00
2023-05-09T20:09:57.858Z,16.00
2023-05-09T20:12:30.196Z,16.40
2023-05-09T20:15:01.589Z,16.10
2023-05-09T20:17:35.403Z,16.10
2023-05-09T20:20:07.087Z,16.10
2023-05-09T20:22:38.037Z,16.10
2023-05-09T20:27:58.251Z,16.10
2023-05-09T20:30:29.378Z,16.10
2023-05-09T20:33:01.343Z,16.10
2023-05-09T20:35:32.360Z,16.10
2023-05-09T20:38:04.818Z,16.10
2023-05-09T20:40:38.665Z,16.10
2023-05-09T20:43:09.636Z,16.10
2023-05-09T20:45:40.544Z,16.10
2023-05-09T20:48:12.505Z,16.10
2023-05-09T20:50:43.409Z,16.10
2023-05-09T20:53:14.559Z,16.10
2023-05-09T20:55:50.375Z,16.30
2023-05-09T20:58:21.651Z,16.10
2023-05-09T21:00:52.888Z,16.30
2023-05-09T21:03:23.734Z,15.90
2023-05-09T21:05:54.745Z,16.00
2023-05-09T21:08:26.007Z,15.90
2023-05-09T21:10:59.484Z,15.80
2023-05-09T21:13:30.625Z,15.70
2023-05-09T21:16:01.584Z,15.60
2023-05-09T21:18:32.601Z,15.50
2023-05-09T21:21:04.966Z,15.60
2023-05-09T21:23:35.778Z,15.60
2023-05-09T21:26:09.207Z,15.70
2023-05-09T21:28:40.102Z,15.70
2023-05-09T21:31:11.497Z,15.70
2023-05-09T21:33:42.543Z,15.70
2023-05-09T21:36:16.451Z,15.80
2023-05-09T21:38:47.325Z,15.70
2023-05-09T21:41:22.011Z,15.70
2023-05-09T21:43:52.905Z,15.70
2023-05-09T21:46:23.830Z,15.70
2023-05-09T21:48:55.390Z,15.70
2023-05-09T21:52:06.682Z,15.70
2023-05-09T21:55:47.169Z,15.60
2023-05-09T21:58:20.689Z,15.60
2023-05-09T22:00:51.747Z,15.50
2023-05-09T22:03:23.512Z,15.70
2023-05-09T22:05:54.525Z,15.60
2023-05-09T22:08:25.938Z,15.40
2023-05-09T22:10:56.843Z,15.50
2023-05-09T22:13:30.372Z,15.20
2023-05-09T22:16:01.642Z,15.20
2023-05-09T22:18:32.596Z,15.10
2023-05-09T22:21:03.514Z,15.00
2023-05-09T22:23:34.413Z,15.30
2023-05-09T22:26:05.470Z,14.90
2023-05-09T22:28:39.764Z,14.90
2023-05-09T22:31:10.806Z,15.00
2023-05-09T22:33:41.746Z,15.30
2023-05-09T22:36:12.841Z,15.50
2023-05-09T22:38:43.982Z,15.20
2023-05-09T22:41:15.119Z,15.00
2023-05-09T22:43:48.552Z,15.00
2023-05-09T22:46:19.526Z,15.00
2023-05-09T22:48:50.435Z,14.90
2023-05-09T22:51:21.316Z,14.90
2023-05-09T22:53:52.471Z,14.90
2023-05-09T22:56:23.603Z,14.90
2023-05-09T22:58:57.426Z,14.90
2023-05-09T23:01:29.842Z,14.80
2023-05-09T23:04:00.847Z,14.80
2023-05-09T23:06:31.803Z,14.70
2023-05-09T23:09:02.681Z,14.70
2023-05-09T23:11:33.992Z,14.70
2023-05-09T23:14:07.574Z,14.70
2023-05-09T23:16:38.605Z,15.10
2023-05-09T23:19:09.665Z,14.70
2023-05-09T23:21:40.643Z,14.70
2023-05-09T23:24:11.937Z,14.60
2023-05-09T23:26:43.134Z,14.60
2023-05-09T23:29:16.645Z,14.60
2023-05-09T23:31:47.704Z,14.60
2023-05-09T23:34:19.049Z,14.60
2023-05-09T23:36:49.933Z,14.70
2023-05-09T23:39:21.011Z,14.70
2023-05-09T23:41:51.916Z,14.70
2023-05-09T23:44:37.489Z,14.70
2023-05-09T23:47:08.733Z,14.70
2023-05-09T23:49:39.821Z,14.60
2023-05-09T23:52:10.756Z,14.60
2023-05-09T23:54:41.725Z,14.50
2023-05-09T23:57:12.613Z,14.80
2023-05-09T23:59:46.742Z,14.90
